createdAt,value
2023-05-20T00:01:27.189Z,42.96
2023-05-20T00:04:31.879Z,42.97
2023-05-20T00:07:34.773Z,42.94
2023-05-20T00:10:37.742Z,42.99
2023-05-20T00:13:40.818Z,43.04
2023-05-20T00:16:44.223Z,42.89
2023-05-20T00:19:48.485Z,42.83
2023-05-20T00:22:51.504Z,43.07
2023-05-20T00:25:54.382Z,43.15
2023-05-20T00:28:57.213Z,43.01
2023-05-20T00:32:00.499Z,42.97
2023-05-20T00:35:05.763Z,43.01
2023-05-20T00:38:08.601Z,43.02
2023-05-20T00:41:11.606Z,43.01
2023-05-20T00:44:14.472Z,42.98
2023-05-20T00:47:18.709Z,43.04
2023-05-20T00:50:23.029Z,43.01
2023-05-20T00:53:26.993Z,42.99
2023-05-20T00:56:30.829Z,42.93
2023-05-20T00:59:34.470Z,42.95
2023-05-20T01:02:37.544Z,42.92
2023-05-20T01:05:42.610Z,43.02
2023-05-20T01:08:45.887Z,42.93
2023-05-20T01:11:52.985Z,43.05
2023-05-20T01:15:00.488Z,42.93
2023-05-20T01:18:06.080Z,43.03
2023-05-20T01:21:13.039Z,43.14
2023-05-20T01:24:17.290Z,43.00
2023-05-20T01:27:22.542Z,43.08
2023-05-20T01:30:30.753Z,42.98
2023-05-20T01:33:37.117Z,43.04
2023-05-20T01:36:41.572Z,43.01
2023-05-20T01:39:47.561Z,43.11
2023-05-20T01:42:53.330Z,43.08
2023-05-20T01:45:56.624Z,43.05
2023-05-20T01:48:59.452Z,43.17
2023-05-20T01:52:02.392Z,43.12
2023-05-20T01:55:07.921Z,43.19
2023-05-20T01:58:10.869Z,43.16
2023-05-20T02:01:14.154Z,43.18
2023-05-20T02:04:19.993Z,43.18
2023-05-20T02:07:22.874Z,43.16
2023-05-20T02:10:27.134Z,43.11
2023-05-20T02:13:29.977Z,43.13
2023-05-20T02:16:32.941Z,43.08
2023-05-20T02:19:35.901Z,43.01
2023-05-20T02:22:38.857Z,43.17
2023-05-20T02:25:43.214Z,43.04
2023-05-20T02:28:46.923Z,43.09
2023-05-20T02:31:50.068Z,43.16
2023-05-20T02:34:53.170Z,43.14
2023-05-20T02:37:56.076Z,43.11
2023-05-20T02:41:00.345Z,43.11
2023-05-20T02:44:03.220Z,43.10
2023-05-20T02:47:06.454Z,43.01
2023-05-20T02:50:09.972Z,42.98
2023-05-20T02:53:13.387Z,42.96
2023-05-20T02:56:21.535Z,42.87
2023-05-20T02:59:24.519Z,42.90
2023-05-20T03:02:27.421Z,42.89
2023-05-20T03:05:30.346Z,43.06
2023-05-20T03:08:34.150Z,42.92
2023-05-20T03:11:38.357Z,42.98
2023-05-20T03:14:41.193Z,43.01
2023-05-20T03:17:44.079Z,43.03
2023-05-20T03:20:47.164Z,43.04
2023-05-20T03:23:50.051Z,43.10
2023-05-20T03:26:54.448Z,43.02
2023-05-20T03:29:57.328Z,43.04
2023-05-20T03:33:00.577Z,43.07
2023-05-20T03:36:03.454Z,43.09
2023-05-20T03:39:06.356Z,43.05
2023-05-20T03:42:11.175Z,43.05
2023-05-20T03:45:14.234Z,43.04
2023-05-20T03:48:34.538Z,43.09
2023-05-20T03:51:37.373Z,43.02
2023-05-20T03:54:45.697Z,43.00
2023-05-20T03:57:49.999Z,43.16
2023-05-20T04:00:52.909Z,43.11
2023-05-20T04:03:56.000Z,43.13
2023-05-20T04:07:00.529Z,43.14
2023-05-20T04:10:03.540Z,43.10
2023-05-20T04:13:08.366Z,43.00
2023-05-20T04:16:11.304Z,43.02
2023-05-20T04:19:14.840Z,43.14
2023-05-20T04:22:17.830Z,43.09
2023-05-20T04:25:21.163Z,43.09
2023-05-20T04:28:28.146Z,43.24
2023-05-20T04:31:31.786Z,43.19
2023-05-20T04:34:35.225Z,43.22
2023-05-20T04:37:38.495Z,43.27
2023-05-20T04:40:42.924Z,43.26
2023-05-20T04:43:47.183Z,43.34
2023-05-20T04:46:50.147Z,43.34
2023-05-20T04:49:53.071Z,43.36
2023-05-20T04:52:56.025Z,43.27
2023-05-20T04:55:59.029Z,43.30
2023-05-20T04:59:03.264Z,43.31
2023-05-20T05:02:06.517Z,43.32
2023-05-20T05:05:09.892Z,43.34
2023-05-20T05:08:16.742Z,43.28
2023-05-20T05:11:25.096Z,43.38
2023-05-20T05:14:29.372Z,43.34
2023-05-20T05:17:32.423Z,43.34
2023-05-20T05:20:36.295Z,43.39
2023-05-20T05:23:39.192Z,43.35
2023-05-20T05:26:42.132Z,43.32
2023-05-20T05:29:46.884Z,43.38
2023-05-20T05:32:49.965Z,43.38
2023-05-20T05:35:53.908Z,43.37
2023-05-20T05:38:57.107Z,43.34
2023-05-20T05:42:00.545Z,43.38
2023-05-20T05:45:06.101Z,43.33
2023-05-20T05:48:09.110Z,43.22
2023-05-20T05:51:12.216Z,43.31
2023-05-20T05:54:15.131Z,43.32
2023-05-20T05:57:18.426Z,43.14
2023-05-20T06:00:22.928Z,43.26
2023-05-20T06:03:26.113Z,43.35
2023-05-20T06:06:29.738Z,43.39
2023-05-20T06:09:32.671Z,43.31
2023-05-20T06:12:35.589Z,43.42
2023-05-20T06:15:41.150Z,43.43
2023-05-20T06:18:44.186Z,43.39
2023-05-20T06:21:47.226Z,43.48
2023-05-20T06:24:50.569Z,43.52
2023-05-20T06:27:54.194Z,43.47
2023-05-20T06:30:59.879Z,43.58
2023-05-20T06:34:06.459Z,43.75
2023-05-20T06:37:09.403Z,43.88
2023-05-20T06:40:13.656Z,43.82
2023-05-20T06:43:18.006Z,43.93
2023-05-20T06:46:40.737Z,44.03
2023-05-20T06:49:48.178Z,43.94
2023-05-20T06:52:52.122Z,44.07
2023-05-20T06:55:56.516Z,44.15
2023-05-20T06:58:59.673Z,44.27
2023-05-20T07:02:05.614Z,44.22
2023-05-20T07:05:09.565Z,44.27
2023-05-20T07:08:12.537Z,44.28
2023-05-20T07:11:15.471Z,44.26
2023-05-20T07:14:18.836Z,44.33
2023-05-20T07:17:25.186Z,44.36
2023-05-20T07:20:28.121Z,44.29
2023-05-20T07:23:33.015Z,44.34
2023-05-20T07:26:36.572Z,44.27
2023-05-20T07:29:40.283Z,44.29
2023-05-20T07:32:44.877Z,44.30
2023-05-20T07:35:48.147Z,44.20
2023-05-20T07:39:01.720Z,44.23
2023-05-20T07:42:09.772Z,44.21
2023-05-20T07:45:15.529Z,44.29
2023-05-20T07:48:19.809Z,44.19
2023-05-20T07:51:22.744Z,44.27
2023-05-20T07:54:25.931Z,44.29
2023-05-20T07:57:29.263Z,44.24
2023-05-20T08:00:32.630Z,44.23
2023-05-20T08:03:41.024Z,44.24
2023-05-20T08:06:48.243Z,44.19
2023-05-20T08:09:58.345Z,44.30
2023-05-20T08:13:03.422Z,44.37
2023-05-20T08:16:07.537Z,44.28
2023-05-20T08:19:12.137Z,44.32
2023-05-20T08:22:15.234Z,44.35
2023-05-20T08:25:18.171Z,44.47
2023-05-20T08:28:22.267Z,44.36
2023-05-20T08:31:26.785Z,44.53
2023-05-20T08:34:31.198Z,44.41
2023-05-20T08:37:34.105Z,44.42
2023-05-20T08:40:37.288Z,44.48
2023-05-20T08:43:40.889Z,44.41
2023-05-20T08:46:44.330Z,44.39
2023-05-20T08:49:49.066Z,44.36
2023-05-20T08:52:51.967Z,44.23
2023-05-20T08:56:00.964Z,44.08
2023-05-20T08:59:05.448Z,44.01
2023-05-20T09:02:09.865Z,44.14
2023-05-20T09:05:14.547Z,44.05
2023-05-20T09:08:17.504Z,44.32
2023-05-20T09:11:21.706Z,44.41
2023-05-20T09:14:27.148Z,44.47
2023-05-20T09:17:30.015Z,44.52
2023-05-20T09:20:37.185Z,44.74
2023-05-20T09:23:40.092Z,44.71
2023-05-20T09:26:43.046Z,44.73
2023-05-20T09:29:46.333Z,44.76
2023-05-20T09:32:54.284Z,44.64
2023-05-20T09:36:04.457Z,44.79
2023-05-20T09:39:09.885Z,44.97
2023-05-20T09:42:19.927Z,45.11
2023-05-20T09:45:24.608Z,45.15
2023-05-20T09:48:28.606Z,45.30
2023-05-20T09:51:34.063Z,45.10
2023-05-20T09:54:37.910Z,45.08
2023-05-20T09:57:40.774Z,45.62
2023-05-20T10:00:43.640Z,45.87
2023-05-20T10:03:46.612Z,46.43
2023-05-20T10:07:11.795Z,46.65
2023-05-20T10:10:26.852Z,46.60
2023-05-20T10:13:46.572Z,46.51
2023-05-20T10:16:55.356Z,46.49
2023-05-20T10:20:03.011Z,46.38
2023-05-20T10:23:08.842Z,46.42
2023-05-20T10:26:12.185Z,46.35
2023-05-20T10:29:18.357Z,46.38
2023-05-20T10:32:28.454Z,46.37
2023-05-20T10:35:31.978Z,46.65
2023-05-20T10:38:36.688Z,46.45
2023-05-20T10:41:39.666Z,46.53
2023-05-20T10:44:43.718Z,46.58
2023-05-20T10:47:56.835Z,46.52
2023-05-20T10:51:04.063Z,46.60
2023-05-20T10:54:11.763Z,46.57
2023-05-20T10:57:15.275Z,46.82
2023-05-20T11:00:18.719Z,46.66
2023-05-20T11:03:23.535Z,46.78
2023-05-20T11:06:28.377Z,47.40
2023-05-20T11:09:33.946Z,47.10
2023-05-20T11:12:37.105Z,46.98
2023-05-20T11:15:41.557Z,46.81
2023-05-20T11:18:44.465Z,46.95
2023-05-20T11:21:47.463Z,46.78
2023-05-20T11:24:51.664Z,46.74
2023-05-20T11:27:54.903Z,46.62
2023-05-20T11:30:57.810Z,46.70
2023-05-20T11:34:02.506Z,46.60
2023-05-20T11:37:08.751Z,46.56
2023-05-20T11:40:14.719Z,46.59
2023-05-20T11:43:17.580Z,46.56
2023-05-20T11:46:22.222Z,46.44
2023-05-20T11:49:25.171Z,46.55
2023-05-20T11:52:30.040Z,46.41
2023-05-20T11:55:35.067Z,46.38
2023-05-20T11:58:37.894Z,46.39
2023-05-20T12:01:42.055Z,46.43
2023-05-20T12:04:45.082Z,46.45
2023-05-20T12:07:48.037Z,46.48
2023-05-20T12:10:52.287Z,46.44
2023-05-20T12:13:55.133Z,46.47
2023-05-20T12:16:58.160Z,46.31
2023-05-20T12:20:01.069Z,46.45
2023-05-20T12:23:04.685Z,46.50
2023-05-20T12:26:08.927Z,46.59
2023-05-20T12:29:11.794Z,46.47
2023-05-20T12:32:14.776Z,46.44
2023-05-20T12:35:18.515Z,46.39
2023-05-20T12:38:21.559Z,46.42
2023-05-20T12:41:25.994Z,46.35
2023-05-20T12:44:28.914Z,46.38
2023-05-20T12:47:33.208Z,46.34
2023-05-20T12:50:36.391Z,46.23
2023-05-20T12:53:39.627Z,46.31
2023-05-20T12:56:47.402Z,46.33
2023-05-20T12:59:50.852Z,46.25
2023-05-20T13:02:54.731Z,46.22
2023-05-20T13:05:59.283Z,46.26
2023-05-20T13:09:02.218Z,46.18
2023-05-20T13:12:07.233Z,46.21
2023-05-20T13:15:11.124Z,46.25
2023-05-20T13:18:15.402Z,46.29
2023-05-20T13:21:18.572Z,46.44
2023-05-20T13:24:21.826Z,46.08
2023-05-20T13:27:26.028Z,46.25
2023-05-20T13:30:29.389Z,46.40
2023-05-20T13:33:32.226Z,46.31
2023-05-20T13:36:35.350Z,46.41
2023-05-20T13:39:38.308Z,46.35
2023-05-20T13:42:42.578Z,46.16
2023-05-20T13:45:45.455Z,46.21
2023-05-20T13:48:48.293Z,46.23
2023-05-20T13:51:51.161Z,46.36
2023-05-20T13:54:54.018Z,46.28
2023-05-20T13:57:58.378Z,46.10
2023-05-20T14:01:01.224Z,46.06
2023-05-20T14:04:04.065Z,46.23
2023-05-20T14:07:09.526Z,46.27
2023-05-20T14:10:12.875Z,46.25
2023-05-20T14:13:17.072Z,46.16
2023-05-20T14:16:20.016Z,46.34
2023-05-20T14:19:23.011Z,46.01
2023-05-20T14:22:25.969Z,46.06
2023-05-20T14:25:28.906Z,46.28
2023-05-20T14:28:33.202Z,46.87
2023-05-20T14:31:36.199Z,46.88
2023-05-20T14:34:39.094Z,46.88
2023-05-20T14:37:41.968Z,46.81
2023-05-20T14:40:44.903Z,46.77
2023-05-20T14:43:49.113Z,46.80
2023-05-20T14:46:52.067Z,46.66
2023-05-20T14:49:54.933Z,46.34
2023-05-20T14:52:57.793Z,46.32
2023-05-20T14:56:00.901Z,46.15
2023-05-20T14:59:05.097Z,46.28
2023-05-20T15:02:08.281Z,46.15
2023-05-20T15:05:12.175Z,46.55
2023-05-20T15:08:15.339Z,46.56
2023-05-20T15:11:18.318Z,46.57
2023-05-20T15:14:22.624Z,46.66
2023-05-20T15:17:25.597Z,46.80
2023-05-20T15:20:28.538Z,46.60
2023-05-20T15:23:31.414Z,46.59
2023-05-20T15:26:34.490Z,46.70
2023-05-20T15:29:40.698Z,47.40
2023-05-20T15:32:43.950Z,47.52
2023-05-20T15:35:47.171Z,47.17
2023-05-20T15:38:50.086Z,47.12
2023-05-20T15:41:53.757Z,46.98
2023-05-20T15:44:58.014Z,47.05
2023-05-20T15:48:00.928Z,47.02
2023-05-20T15:51:04.296Z,46.97
2023-05-20T15:54:07.196Z,47.02
2023-05-20T15:57:10.052Z,46.94
2023-05-20T16:00:15.923Z,46.83
2023-05-20T16:03:18.937Z,46.81
2023-05-20T16:06:22.265Z,46.83
2023-05-20T16:09:25.174Z,46.77
2023-05-20T16:12:28.244Z,46.54
2023-05-20T16:15:36.243Z,46.56
2023-05-20T16:18:39.127Z,46.65
2023-05-20T16:21:41.998Z,46.64
2023-05-20T16:24:44.952Z,46.59
2023-05-20T16:27:47.768Z,46.48
2023-05-20T16:30:52.159Z,46.65
2023-05-20T16:33:56.340Z,46.49
2023-05-20T16:36:59.310Z,46.40
2023-05-20T16:40:02.170Z,46.44
2023-05-20T16:43:05.014Z,46.48
2023-05-20T16:46:09.512Z,47.22
2023-05-20T16:49:12.376Z,48.32
2023-05-20T16:52:15.285Z,48.09
2023-05-20T16:55:18.202Z,47.69
2023-05-20T16:58:21.310Z,47.60
2023-05-20T17:01:25.935Z,47.25
2023-05-20T17:04:28.900Z,47.25
2023-05-20T17:07:33.405Z,46.88
2023-05-20T17:10:36.430Z,46.92
2023-05-20T17:13:41.477Z,46.78
2023-05-20T17:16:45.776Z,46.77
2023-05-20T17:19:48.625Z,46.73
2023-05-20T17:22:51.458Z,46.62
2023-05-20T17:25:54.312Z,46.69
2023-05-20T17:28:57.184Z,46.66
2023-05-20T17:32:01.674Z,46.54
2023-05-20T17:35:05.711Z,46.72
2023-05-20T17:38:08.533Z,46.67
2023-05-20T17:41:11.426Z,46.55
2023-05-20T17:44:14.420Z,46.69
2023-05-20T17:47:20.016Z,46.58
2023-05-20T17:50:23.022Z,46.59
2023-05-20T17:53:26.012Z,46.47
2023-05-20T17:56:29.694Z,46.71
2023-05-20T17:59:33.788Z,46.82
2023-05-20T18:02:38.865Z,46.77
2023-05-20T18:05:42.011Z,46.90
2023-05-20T18:08:45.008Z,46.85
2023-05-20T18:11:47.888Z,46.78
2023-05-20T18:14:50.712Z,46.76
2023-05-20T18:17:55.190Z,46.69
2023-05-20T18:20:58.033Z,46.70
2023-05-20T18:24:00.957Z,46.55
2023-05-20T18:27:03.773Z,46.70
2023-05-20T18:30:07.948Z,46.68
2023-05-20T18:33:12.218Z,46.75
2023-05-20T18:36:15.212Z,46.71
2023-05-20T18:39:20.486Z,46.76
2023-05-20T18:42:23.510Z,46.70
2023-05-20T18:45:26.396Z,46.70
2023-05-20T18:48:30.767Z,46.76
2023-05-20T18:51:34.022Z,46.69
2023-05-20T18:54:36.928Z,46.76
2023-05-20T18:57:39.842Z,46.57
2023-05-20T19:00:42.967Z,46.63
2023-05-20T19:03:47.249Z,46.64
2023-05-20T19:06:51.836Z,46.79
2023-05-20T19:09:54.775Z,46.70
2023-05-20T19:12:57.632Z,46.82
2023-05-20T19:16:00.617Z,46.75
2023-05-20T19:19:04.907Z,46.67
2023-05-20T19:22:07.787Z,46.67
2023-05-20T19:25:11.373Z,46.65
2023-05-20T19:28:14.255Z,46.60
2023-05-20T19:31:21.175Z,46.54
2023-05-20T19:34:25.681Z,46.66
2023-05-20T19:37:28.544Z,46.50
2023-05-20T19:40:31.425Z,46.57
2023-05-20T19:43:34.318Z,46.52
2023-05-20T19:46:37.755Z,46.62
2023-05-20T19:49:42.206Z,46.57
2023-05-20T19:52:45.036Z,46.71
2023-05-20T19:55:48.120Z,46.66
2023-05-20T19:58:51.841Z,46.58
2023-05-20T20:01:54.729Z,46.55
2023-05-20T20:04:59.315Z,46.56
2023-05-20T20:08:02.290Z,46.57
2023-05-20T20:11:05.208Z,46.53
2023-05-20T20:14:08.042Z,46.83
2023-05-20T20:17:15.637Z,47.62
2023-05-20T20:20:20.394Z,47.57
2023-05-20T20:23:23.233Z,47.05
2023-05-20T20:26:27.240Z,46.95
2023-05-20T20:29:30.049Z,46.95
2023-05-20T20:32:33.616Z,46.77
2023-05-20T20:35:39.056Z,46.87
2023-05-20T20:38:46.596Z,46.83
2023-05-20T20:41:51.383Z,46.87
2023-05-20T20:44:54.650Z,46.81
2023-05-20T20:47:58.044Z,46.81
2023-05-20T20:51:02.370Z,46.73
2023-05-20T20:54:06.575Z,46.84
2023-05-20T20:57:09.426Z,46.72
2023-05-20T21:00:17.568Z,46.74
2023-05-20T21:03:23.818Z,46.77
2023-05-20T21:06:28.188Z,46.77
2023-05-20T21:09:31.112Z,46.89
2023-05-20T21:12:34.058Z,46.97
2023-05-20T21:15:37.256Z,46.86
2023-05-20T21:18:40.742Z,46.92
2023-05-20T21:21:44.964Z,46.89
2023-05-20T21:28:32.552Z,46.89
2023-05-20T21:31:35.491Z,46.86
2023-05-20T21:34:38.402Z,46.95
2023-05-20T21:37:42.727Z,46.87
2023-05-20T21:40:45.636Z,46.90
2023-05-20T21:43:48.474Z,46.96
2023-05-20T21:46:51.461Z,46.94
2023-05-20T21:49:54.396Z,46.90
2023-05-20T21:52:58.619Z,46.93
2023-05-20T21:56:01.957Z,46.94
2023-05-20T21:59:04.821Z,47.03
2023-05-20T22:02:07.768Z,47.02
2023-05-20T22:05:11.920Z,46.95
2023-05-20T22:08:17.264Z,47.12
2023-05-20T22:11:21.569Z,47.18
2023-05-20T22:14:24.513Z,47.29
2023-05-20T22:17:27.445Z,47.19
2023-05-20T22:20:30.511Z,47.23
2023-05-20T22:23:34.736Z,47.36
2023-05-20T22:26:37.996Z,47.34
2023-05-20T22:29:40.832Z,47.37
2023-05-20T22:32:44.130Z,47.40
2023-05-20T22:35:47.030Z,47.30
2023-05-20T22:38:51.501Z,47.60
2023-05-20T22:41:54.344Z,47.36
2023-05-20T22:44:57.180Z,47.30
2023-05-20T22:48:00.145Z,47.23
2023-05-20T22:51:03.775Z,47.16
2023-05-20T22:54:08.699Z,47.16
2023-05-20T22:57:12.206Z,47.22
2023-05-20T23:00:15.728Z,47.13
2023-05-20T23:03:18.592Z,47.24
2023-05-20T23:06:22.454Z,47.14
2023-05-20T23:09:26.838Z,47.13
2023-05-20T23:12:29.712Z,47.13
2023-05-20T23:15:32.677Z,47.04
2023-05-20T23:18:35.638Z,47.01
2023-05-20T23:21:38.497Z,47.05
2023-05-20T23:24:42.720Z,47.09
2023-05-20T23:27:45.553Z,47.04
2023-05-20T23:30:48.413Z,46.96
2023-05-20T23:33:51.408Z,46.98
2023-05-20T23:36:54.485Z,47.10
2023-05-20T23:39:59.046Z,47.05
2023-05-20T23:43:01.889Z,47.02
2023-05-20T23:46:04.892Z,47.00
2023-05-20T23:49:10.005Z,47.00
2023-05-20T23:52:12.882Z,47.02
2023-05-20T23:55:18.241Z,46.87
2023-05-20T23:58:21.060Z,46.96
